createdAt,value
2018-02-24T00:01:02.591Z,39.30
2018-02-24T00:03:30.085Z,40.22
2018-02-24T00:05:57.577Z,42.47
2018-02-24T00:08:25.135Z,40.10
2018-02-24T00:10:53.200Z,45.45
2018-02-24T00:13:20.675Z,48.50
2018-02-24T00:15:48.139Z,37.85
2018-02-24T00:18:15.904Z,38.97
2018-02-24T00:20:43.430Z,33.60
2018-02-24T00:23:10.880Z,35.15
2018-02-24T00:25:38.369Z,37.35
2018-02-24T00:28:05.835Z,45.75
2018-02-24T00:30:33.318Z,38.17
2018-02-24T00:33:00.787Z,35.10
2018-02-24T00:35:28.304Z,38.05
2018-02-24T00:37:55.868Z,38.88
2018-02-24T00:40:23.385Z,43.58
2018-02-24T00:42:50.867Z,42.33
2018-02-24T00:45:18.402Z,46.05
2018-02-24T00:47:45.886Z,46.40
2018-02-24T00:50:13.579Z,46.67
2018-02-24T00:52:41.047Z,42.75
2018-02-24T00:55:08.552Z,42.78
2018-02-24T00:57:36.144Z,38.80
2018-02-24T01:00:03.713Z,36.58
2018-02-24T01:02:31.345Z,40.65
2018-02-24T01:04:58.827Z,47.40
2018-02-24T01:07:26.285Z,49.95
2018-02-24T01:09:53.780Z,41.37
2018-02-24T01:12:21.259Z,37.90
2018-02-24T01:14:48.740Z,47.92
2018-02-24T01:17:16.216Z,41.83
2018-02-24T01:19:43.690Z,42.50
2018-02-24T01:22:11.171Z,41.83
2018-02-24T01:24:38.659Z,39.53
2018-02-24T01:27:06.129Z,40.22
2018-02-24T01:29:33.588Z,43.17
2018-02-24T01:32:01.055Z,41.00
2018-02-24T01:34:28.511Z,36.40
2018-02-24T01:36:55.984Z,42.75
2018-02-24T01:39:23.474Z,45.20
2018-02-24T01:41:50.950Z,42.67
2018-02-24T01:44:18.410Z,44.47
2018-02-24T01:46:45.882Z,49.35
2018-02-24T01:49:13.347Z,43.28
2018-02-24T01:51:40.824Z,42.15
2018-02-24T01:54:08.303Z,42.25
2018-02-24T01:56:35.771Z,37.88
2018-02-24T01:59:03.262Z,40.92
2018-02-24T02:01:30.805Z,46.80
2018-02-24T02:03:58.282Z,39.22
2018-02-24T02:06:26.786Z,44.30
2018-02-24T02:08:54.251Z,40.90
2018-02-24T02:11:21.707Z,40.55
2018-02-24T02:13:49.216Z,46.58
2018-02-24T02:16:17.306Z,42.65
2018-02-24T02:18:44.769Z,40.10
2018-02-24T02:21:12.247Z,39.22
2018-02-24T02:23:39.715Z,40.47
2018-02-24T02:26:07.189Z,40.75
2018-02-24T02:28:34.754Z,42.25
2018-02-24T02:31:02.239Z,46.42
2018-02-24T02:33:29.709Z,41.92
2018-02-24T02:35:57.196Z,43.63
2018-02-24T02:38:24.700Z,46.37
2018-02-24T02:40:52.268Z,37.72
2018-02-24T02:43:19.734Z,44.65
2018-02-24T02:45:47.267Z,43.38
2018-02-24T02:48:14.739Z,38.88
2018-02-24T02:50:42.208Z,46.55
2018-02-24T02:53:09.691Z,46.40
2018-02-24T02:55:37.160Z,43.78
2018-02-24T02:58:04.634Z,48.00
2018-02-24T03:00:32.101Z,51.85
2018-02-24T03:02:59.575Z,45.63
2018-02-24T03:05:27.060Z,40.80
2018-02-24T03:07:54.544Z,45.60
2018-02-24T03:10:22.046Z,43.67
2018-02-24T03:12:49.516Z,42.90
2018-02-24T03:15:17.334Z,41.25
2018-02-24T03:17:44.814Z,45.12
2018-02-24T03:20:12.289Z,44.78
2018-02-24T03:22:39.796Z,45.67
2018-02-24T03:25:07.270Z,50.72
2018-02-24T03:27:34.736Z,47.22
2018-02-24T03:30:02.199Z,46.95
2018-02-24T03:32:29.667Z,47.58
2018-02-24T03:34:57.132Z,44.92
2018-02-24T03:37:24.682Z,44.60
2018-02-24T03:39:52.159Z,43.40
2018-02-24T03:42:19.643Z,44.20
2018-02-24T03:44:47.132Z,44.33
2018-02-24T03:47:15.437Z,48.67
2018-02-24T03:49:43.170Z,40.20
2018-02-24T03:52:10.630Z,46.90
2018-02-24T03:54:38.156Z,46.03
2018-02-24T03:57:05.645Z,42.95
2018-02-24T03:59:33.110Z,47.80
2018-02-24T04:02:00.626Z,45.40
2018-02-24T04:04:28.103Z,49.95
2018-02-24T04:06:55.603Z,50.63
2018-02-24T04:09:23.058Z,46.78
2018-02-24T04:11:50.516Z,51.70
2018-02-24T04:14:17.974Z,53.95
2018-02-24T04:16:45.428Z,54.40
2018-02-24T04:19:12.967Z,52.55
2018-02-24T04:21:40.446Z,55.30
2018-02-24T04:24:08.011Z,50.42
2018-02-24T04:26:35.755Z,57.47
2018-02-24T04:29:03.236Z,56.83
2018-02-24T04:31:30.702Z,60.00
2018-02-24T04:33:58.174Z,57.45
2018-02-24T04:36:26.189Z,57.90
2018-02-24T04:38:53.718Z,51.05
2018-02-24T04:41:21.245Z,56.25
2018-02-24T04:43:48.711Z,57.22
2018-02-24T04:46:16.435Z,56.28
2018-02-24T04:48:44.171Z,59.65
2018-02-24T04:51:11.659Z,54.70
2018-02-24T04:53:39.119Z,52.40
2018-02-24T04:56:06.582Z,60.58
2018-02-24T04:58:34.139Z,61.95
2018-02-24T05:01:01.595Z,61.35
2018-02-24T05:03:29.067Z,62.17
2018-02-24T05:05:56.535Z,53.00
2018-02-24T05:08:24.005Z,56.97
2018-02-24T05:10:51.493Z,58.47
2018-02-24T05:13:18.990Z,53.08
2018-02-24T05:15:46.460Z,51.80
2018-02-24T05:18:13.927Z,55.80
2018-02-24T05:20:41.404Z,50.63
2018-02-24T05:23:09.560Z,49.90
2018-02-24T05:25:37.067Z,56.20
2018-02-24T05:28:04.559Z,51.72
2018-02-24T05:30:32.299Z,50.45
2018-02-24T05:32:59.840Z,51.90
2018-02-24T05:35:27.309Z,46.67
2018-02-24T05:37:54.767Z,55.42
2018-02-24T05:40:22.251Z,52.67
2018-02-24T05:42:49.731Z,57.95
2018-02-24T05:45:17.224Z,49.30
2018-02-24T05:47:44.694Z,53.40
2018-02-24T05:50:12.178Z,55.80
2018-02-24T05:52:39.655Z,47.20
2018-02-24T05:55:07.276Z,55.45
2018-02-24T05:57:34.754Z,49.80
2018-02-24T06:00:02.248Z,43.63
2018-02-24T06:02:29.995Z,50.40
2018-02-24T06:04:57.452Z,48.95
2018-02-24T06:07:24.932Z,50.90
2018-02-24T06:09:52.426Z,54.97
2018-02-24T06:12:19.901Z,59.05
2018-02-24T06:14:47.479Z,48.45
2018-02-24T06:17:14.932Z,49.13
2018-02-24T06:19:42.433Z,48.38
2018-02-24T06:22:09.900Z,47.45
2018-02-24T06:24:37.398Z,53.55
2018-02-24T06:27:04.890Z,50.45
2018-02-24T06:29:32.372Z,57.50
2018-02-24T06:31:59.855Z,48.30
2018-02-24T06:34:27.316Z,50.10
2018-02-24T06:36:54.787Z,49.35
2018-02-24T06:39:22.315Z,47.42
2018-02-24T06:41:49.788Z,49.80
2018-02-24T06:44:17.271Z,44.25
2018-02-24T06:46:44.749Z,43.42
2018-02-24T06:49:12.228Z,45.35
2018-02-24T06:51:39.714Z,49.17
2018-02-24T06:54:07.174Z,49.75
2018-02-24T06:56:34.694Z,46.15
2018-02-24T06:59:02.164Z,47.95
2018-02-24T07:01:29.643Z,44.97
2018-02-24T07:03:57.101Z,48.92
2018-02-24T07:06:24.854Z,50.95
2018-02-24T07:08:52.337Z,46.85
2018-02-24T07:11:19.803Z,52.17
2018-02-24T07:13:47.283Z,54.22
2018-02-24T07:16:14.776Z,51.03
2018-02-24T07:18:42.255Z,44.80
2018-02-24T07:21:09.728Z,49.42
2018-02-24T07:23:37.203Z,45.42
2018-02-24T07:26:04.722Z,52.88
2018-02-24T07:28:32.270Z,48.35
2018-02-24T07:30:59.755Z,44.97
2018-02-24T07:33:27.219Z,48.03
2018-02-24T07:35:54.724Z,39.40
2018-02-24T07:38:22.182Z,50.05
2018-02-24T07:40:49.665Z,42.62
2018-02-24T07:43:17.159Z,41.88
2018-02-24T07:45:44.917Z,43.00
2018-02-24T07:48:12.402Z,38.58
2018-02-24T07:50:39.876Z,44.92
2018-02-24T07:53:07.463Z,37.63
2018-02-24T07:55:34.928Z,40.08
2018-02-24T07:58:02.384Z,34.17
2018-02-24T08:00:30.048Z,41.53
2018-02-24T08:02:57.524Z,36.72
2018-02-24T08:05:25.057Z,40.38
2018-02-24T08:07:52.517Z,40.03
2018-02-24T08:10:20.003Z,37.30
2018-02-24T08:12:47.483Z,39.78
2018-02-24T08:15:15.565Z,40.38
2018-02-24T08:17:43.060Z,38.10
2018-02-24T08:20:10.523Z,48.58
2018-02-24T08:22:38.013Z,46.15
2018-02-24T08:25:05.528Z,37.83
2018-02-24T08:27:33.150Z,40.10
2018-02-24T08:30:00.621Z,41.08
2018-02-24T08:32:28.296Z,36.47
2018-02-24T08:34:55.783Z,44.55
2018-02-24T08:37:23.257Z,43.08
2018-02-24T08:39:50.728Z,37.38
2018-02-24T08:42:18.205Z,39.33
2018-02-24T08:44:45.702Z,40.83
2018-02-24T08:47:13.163Z,36.65
2018-02-24T08:49:40.652Z,38.78
2018-02-24T08:52:08.212Z,35.28
2018-02-24T08:54:35.762Z,41.60
2018-02-24T08:59:37.066Z,39.92
2018-02-24T09:02:04.545Z,34.15
2018-02-24T09:04:32.134Z,35.60
2018-02-24T09:06:59.611Z,41.78
2018-02-24T09:09:27.555Z,31.80
2018-02-24T09:11:55.076Z,32.92
2018-02-24T09:14:22.547Z,35.83
2018-02-24T09:16:50.035Z,34.72
2018-02-24T09:19:17.551Z,38.22
2018-02-24T09:21:45.030Z,42.22
2018-02-24T09:24:12.509Z,32.17
2018-02-24T09:26:40.047Z,38.92
2018-02-24T09:29:07.517Z,35.15
2018-02-24T09:31:35.001Z,42.60
2018-02-24T09:34:02.548Z,34.55
2018-02-24T09:36:30.174Z,42.20
2018-02-24T09:38:57.664Z,36.58
2018-02-24T09:41:25.129Z,35.50
2018-02-24T09:43:52.621Z,31.67
2018-02-24T09:46:20.092Z,35.05
2018-02-24T09:48:47.555Z,36.03
2018-02-24T09:51:15.101Z,37.88
2018-02-24T09:53:42.616Z,32.47
2018-02-24T09:56:10.081Z,36.22
2018-02-24T09:58:37.598Z,34.58
2018-02-24T10:01:05.084Z,40.08
2018-02-24T10:03:32.552Z,34.88
2018-02-24T10:06:00.062Z,38.10
2018-02-24T10:08:27.575Z,37.63
2018-02-24T10:10:55.081Z,39.97
2018-02-24T10:13:22.588Z,39.88
2018-02-24T10:15:50.095Z,37.50
2018-02-24T10:18:17.626Z,41.97
2018-02-24T10:20:45.435Z,35.65
2018-02-24T10:23:12.921Z,36.08
2018-02-24T10:25:40.385Z,41.45
2018-02-24T10:28:07.949Z,35.65
2018-02-24T10:30:35.432Z,43.05
2018-02-24T10:33:02.911Z,39.97
2018-02-24T10:35:30.392Z,43.40
2018-02-24T10:37:57.875Z,40.65
2018-02-24T10:40:25.456Z,39.55
2018-02-24T10:42:52.928Z,33.20
2018-02-24T10:45:20.415Z,39.63
2018-02-24T10:47:47.919Z,36.25
2018-02-24T10:50:15.465Z,37.35
2018-02-24T10:52:43.423Z,41.90
2018-02-24T10:55:10.901Z,33.00
2018-02-24T10:57:38.382Z,34.15
2018-02-24T11:02:39.780Z,37.65
2018-02-24T11:05:07.288Z,38.40
2018-02-24T11:07:34.808Z,42.20
2018-02-24T11:10:02.329Z,38.72
2018-02-24T11:12:30.395Z,39.42
2018-02-24T11:14:57.859Z,38.47
2018-02-24T11:17:25.352Z,33.22
2018-02-24T11:19:52.852Z,36.53
2018-02-24T11:22:20.325Z,37.90
2018-02-24T11:24:48.166Z,35.05
2018-02-24T11:27:16.248Z,40.67
2018-02-24T11:29:43.992Z,38.10
2018-02-24T11:32:11.504Z,35.75
2018-02-24T11:34:38.964Z,38.25
2018-02-24T11:37:06.453Z,30.60
2018-02-24T11:39:39.508Z,39.20
2018-02-24T11:42:07.030Z,37.03
2018-02-24T11:44:34.650Z,40.38
2018-02-24T11:47:02.191Z,36.33
2018-02-24T11:49:29.683Z,33.72
2018-02-24T11:51:57.162Z,35.42
2018-02-24T11:54:26.332Z,41.37
2018-02-24T11:56:53.938Z,34.90
2018-02-24T11:59:21.471Z,37.40
2018-02-24T12:01:48.983Z,34.60
2018-02-24T12:04:16.923Z,36.00
2018-02-24T12:06:45.688Z,32.05
2018-02-24T12:09:13.264Z,40.38
2018-02-24T12:11:40.762Z,33.30
2018-02-24T12:14:08.239Z,27.17
2018-02-24T12:16:35.856Z,38.72
2018-02-24T12:19:03.513Z,38.55
2018-02-24T12:21:32.280Z,29.15
2018-02-24T12:26:34.101Z,24.45
2018-02-24T12:29:01.584Z,22.65
2018-02-24T12:31:29.732Z,23.85
2018-02-24T12:33:57.287Z,22.85
2018-02-24T12:36:24.757Z,20.58
2018-02-24T12:38:52.457Z,26.50
2018-02-24T12:41:19.964Z,21.37
2018-02-24T12:43:47.450Z,25.58
2018-02-24T12:46:15.290Z,25.23
2018-02-24T12:48:42.854Z,20.45
2018-02-24T12:51:10.586Z,22.50
2018-02-24T12:53:38.105Z,24.65
2018-02-24T12:56:06.255Z,24.98
2018-02-24T12:58:33.703Z,25.55
2018-02-24T13:01:01.209Z,27.95
2018-02-24T13:03:30.191Z,24.27
2018-02-24T13:05:57.729Z,29.12
2018-02-24T13:08:25.194Z,30.67
2018-02-24T13:10:52.944Z,28.35
2018-02-24T13:13:20.416Z,36.55
2018-02-24T13:15:47.887Z,28.27
2018-02-24T13:18:15.412Z,31.83
2018-02-24T13:20:42.871Z,31.65
2018-02-24T13:23:10.346Z,34.35
2018-02-24T13:25:37.851Z,34.40
2018-02-24T13:28:05.416Z,33.42
2018-02-24T13:30:32.945Z,30.90
2018-02-24T13:33:00.421Z,30.05
2018-02-24T13:35:27.889Z,32.15
2018-02-24T13:37:55.407Z,30.92
2018-02-24T13:40:22.871Z,36.10
2018-02-24T13:42:50.349Z,31.98
2018-02-24T13:45:17.880Z,30.23
2018-02-24T13:47:45.387Z,28.40
2018-02-24T13:50:12.877Z,25.85
2018-02-24T13:52:40.385Z,30.42
2018-02-24T13:55:08.816Z,34.55
2018-02-24T13:57:36.299Z,22.40
2018-02-24T14:00:03.890Z,27.98
2018-02-24T14:02:31.423Z,25.42
2018-02-24T14:04:58.904Z,24.00
2018-02-24T14:07:26.457Z,24.00
2018-02-24T14:09:53.939Z,24.83
2018-02-24T14:12:21.398Z,24.77
2018-02-24T14:14:48.884Z,25.17
2018-02-24T14:17:16.361Z,21.42
2018-02-24T14:19:43.830Z,18.12
2018-02-24T14:22:11.339Z,25.52
2018-02-24T14:24:38.805Z,26.87
2018-02-24T14:27:06.456Z,22.48
2018-02-24T14:29:33.990Z,19.35
2018-02-24T14:32:01.459Z,20.20
2018-02-24T14:34:28.942Z,20.12
2018-02-24T14:36:56.438Z,22.83
2018-02-24T14:39:23.907Z,25.62
2018-02-24T14:41:51.377Z,19.60
2018-02-24T14:44:18.865Z,22.87
2018-02-24T14:46:46.320Z,22.95
2018-02-24T14:49:13.854Z,26.92
2018-02-24T14:51:41.330Z,24.42
2018-02-24T14:54:08.837Z,19.85
2018-02-24T14:56:36.370Z,21.87
2018-02-24T14:59:03.903Z,20.60
2018-02-24T15:01:31.410Z,19.37
2018-02-24T15:03:58.880Z,16.70
2018-02-24T15:06:26.632Z,15.27
2018-02-24T15:08:54.125Z,16.67
2018-02-24T15:11:21.617Z,15.27
2018-02-24T15:13:49.084Z,13.27
2018-02-24T15:16:16.759Z,14.32
2018-02-24T15:18:44.238Z,11.25
2018-02-24T15:21:11.757Z,14.25
2018-02-24T15:23:39.249Z,11.27
2018-02-24T15:26:06.744Z,13.30
2018-02-24T15:28:34.232Z,11.70
2018-02-24T15:31:01.739Z,18.10
2018-02-24T15:33:29.216Z,10.02
2018-02-24T15:35:57.561Z,12.82
2018-02-24T15:38:25.021Z,12.82
2018-02-24T15:40:52.484Z,13.27
2018-02-24T15:43:19.978Z,12.55
2018-02-24T15:45:47.433Z,12.55
2018-02-24T15:48:14.899Z,17.98
2018-02-24T15:50:42.357Z,14.90
2018-02-24T15:53:09.840Z,13.70
2018-02-24T15:55:37.322Z,13.25
2018-02-24T15:58:04.794Z,14.85
2018-02-24T16:00:32.261Z,14.75
2018-02-24T16:02:59.737Z,12.07
2018-02-24T16:05:27.200Z,15.30
2018-02-24T16:07:54.684Z,12.57
2018-02-24T16:10:22.172Z,11.15
2018-02-24T16:12:49.644Z,14.43
2018-02-24T16:15:17.268Z,11.00
2018-02-24T16:17:44.739Z,12.68
2018-02-24T16:20:12.221Z,14.07
2018-02-24T16:22:39.735Z,12.88
2018-02-24T16:25:07.251Z,18.30
2018-02-24T16:27:34.703Z,13.18
2018-02-24T16:30:02.205Z,18.60
2018-02-24T16:32:30.697Z,10.98
2018-02-24T16:34:58.173Z,12.13
2018-02-24T16:37:25.646Z,23.30
2018-02-24T16:39:53.112Z,16.62
2018-02-24T16:42:20.635Z,14.27
2018-02-24T16:44:48.113Z,8.82
2018-02-24T16:47:15.630Z,11.10
2018-02-24T16:49:43.091Z,12.75
2018-02-24T16:52:10.567Z,15.02
2018-02-24T16:54:38.023Z,12.65
2018-02-24T16:57:05.483Z,10.52
2018-02-24T16:59:32.975Z,13.00
2018-02-24T17:02:00.457Z,14.87
2018-02-24T17:04:28.297Z,7.22
2018-02-24T17:06:55.799Z,11.70
2018-02-24T17:09:23.312Z,11.82
2018-02-24T17:11:50.830Z,13.93
2018-02-24T17:14:18.341Z,11.20
2018-02-24T17:16:45.822Z,9.85
2018-02-24T17:19:13.300Z,10.32
2018-02-24T17:21:40.783Z,13.35
2018-02-24T17:24:08.243Z,6.55
2018-02-24T17:26:35.745Z,11.10
2018-02-24T17:29:03.195Z,9.80
2018-02-24T17:31:30.665Z,10.18
2018-02-24T17:33:58.135Z,10.70
2018-02-24T17:36:26.093Z,7.25
2018-02-24T17:38:53.606Z,10.02
2018-02-24T17:41:21.107Z,9.80
2018-02-24T17:43:48.581Z,10.75
2018-02-24T17:46:16.112Z,9.52
2018-02-24T17:48:43.694Z,10.43
2018-02-24T17:51:11.143Z,12.70
2018-02-24T17:53:39.556Z,11.77
2018-02-24T17:56:07.011Z,8.15
2018-02-24T17:58:34.564Z,10.00
2018-02-24T18:01:02.478Z,8.75
2018-02-24T18:03:29.958Z,11.80
2018-02-24T18:05:57.742Z,12.50
2018-02-24T18:08:25.299Z,11.07
2018-02-24T18:10:52.795Z,9.98
2018-02-24T18:13:20.307Z,8.00
2018-02-24T18:15:47.809Z,10.98
2018-02-24T18:18:15.315Z,9.68
2018-02-24T18:20:42.784Z,8.75
2018-02-24T18:23:10.265Z,8.68
2018-02-24T18:25:37.741Z,8.82
2018-02-24T18:28:05.236Z,7.65
2018-02-24T18:30:32.992Z,7.25
2018-02-24T18:33:00.491Z,8.82
2018-02-24T18:35:27.983Z,10.48
2018-02-24T18:37:55.493Z,10.60
2018-02-24T18:40:23.067Z,8.20
2018-02-24T18:42:50.607Z,11.35
2018-02-24T18:45:18.119Z,9.70
2018-02-24T18:47:45.850Z,11.70
2018-02-24T18:50:13.416Z,12.23
2018-02-24T18:52:40.925Z,13.82
2018-02-24T18:55:08.453Z,10.25
2018-02-24T18:57:36.012Z,13.13
2018-02-24T19:00:03.620Z,11.27
2018-02-24T19:02:31.345Z,8.10
2018-02-24T19:04:58.892Z,12.93
2018-02-24T19:07:26.350Z,14.57
2018-02-24T19:09:53.885Z,12.93
2018-02-24T19:12:21.485Z,10.00
2018-02-24T19:14:48.966Z,14.98
2018-02-24T19:17:16.483Z,12.98
2018-02-24T19:19:45.262Z,15.68
2018-02-24T19:22:12.825Z,25.50
2018-02-24T19:24:40.291Z,15.35
2018-02-24T19:27:08.199Z,13.23
2018-02-24T19:29:35.734Z,16.52
2018-02-24T19:32:03.271Z,14.50
2018-02-24T19:34:30.908Z,11.20
2018-02-24T19:36:58.411Z,15.35
2018-02-24T19:39:25.889Z,15.15
2018-02-24T19:41:53.393Z,12.90
2018-02-24T19:44:20.881Z,16.52
2018-02-24T19:46:48.440Z,18.15
2018-02-24T19:49:15.904Z,22.25
2018-02-24T19:51:43.408Z,18.60
2018-02-24T19:54:10.920Z,21.08
2018-02-24T19:56:38.404Z,20.30
2018-02-24T19:59:05.908Z,27.23
2018-02-24T20:01:33.409Z,21.83
2018-02-24T20:04:00.892Z,22.20
2018-02-24T20:06:28.419Z,26.27
2018-02-24T20:08:55.937Z,25.48
2018-02-24T20:11:23.412Z,26.87
2018-02-24T20:13:52.161Z,29.85
2018-02-24T20:16:21.569Z,28.38
2018-02-24T20:18:50.647Z,26.40
2018-02-24T20:21:20.980Z,22.25
2018-02-24T20:23:49.283Z,25.88
2018-02-24T20:28:50.943Z,22.83
2018-02-24T20:31:18.441Z,25.05
2018-02-24T20:33:46.020Z,21.42
2018-02-24T20:36:13.560Z,27.33
2018-02-24T20:38:41.044Z,24.75
2018-02-24T20:41:10.208Z,24.70
2018-02-24T20:43:37.713Z,26.55
2018-02-24T20:46:05.247Z,26.60
2018-02-24T20:48:33.528Z,21.62
2018-02-24T20:51:01.027Z,23.27
2018-02-24T20:53:28.520Z,20.80
2018-02-24T20:55:56.088Z,21.00
2018-02-24T20:58:23.612Z,19.80
2018-02-24T21:00:51.113Z,27.42
2018-02-24T21:03:18.603Z,26.50
2018-02-24T21:05:46.565Z,22.80
2018-02-24T21:08:14.210Z,31.27
2018-02-24T21:10:41.672Z,28.40
2018-02-24T21:13:09.148Z,33.30
2018-02-24T21:15:36.769Z,31.30
2018-02-24T21:18:04.256Z,34.15
2018-02-24T21:20:32.124Z,30.60
2018-02-24T21:22:59.590Z,27.52
2018-02-24T21:25:27.147Z,27.67
2018-02-24T21:27:54.635Z,26.08
2018-02-24T21:30:22.156Z,32.55
2018-02-24T21:32:51.128Z,25.30
2018-02-24T21:35:18.668Z,27.77
2018-02-24T21:37:46.142Z,27.17
2018-02-24T21:40:13.795Z,22.08
2018-02-24T21:42:41.303Z,19.27
2018-02-24T21:45:08.780Z,22.25
2018-02-24T21:47:36.311Z,17.77
2018-02-24T21:50:03.804Z,21.05
2018-02-24T21:52:31.307Z,24.40
2018-02-24T21:54:58.870Z,20.20
2018-02-24T21:57:26.393Z,31.80
2018-02-24T21:59:53.879Z,19.58
2018-02-24T22:02:21.363Z,21.80
2018-02-24T22:04:48.916Z,21.12
2018-02-24T22:07:16.970Z,22.40
2018-02-24T22:09:44.479Z,22.37
2018-02-24T22:12:11.990Z,24.12
2018-02-24T22:14:39.497Z,19.73
2018-02-24T22:17:07.025Z,22.75
2018-02-24T22:19:34.511Z,17.37
2018-02-24T22:22:01.979Z,29.25
2018-02-24T22:24:29.619Z,18.55
2018-02-24T22:26:57.074Z,24.95
2018-02-24T22:29:24.568Z,26.23
2018-02-24T22:31:53.323Z,23.40
2018-02-24T22:34:20.819Z,21.25
2018-02-24T22:36:48.384Z,21.08
2018-02-24T22:39:15.938Z,21.40
2018-02-24T22:41:43.428Z,22.00
2018-02-24T22:44:10.901Z,20.15
2018-02-24T22:46:38.383Z,19.30
2018-02-24T22:49:05.895Z,22.90
2018-02-24T22:51:33.363Z,16.20
2018-02-24T22:54:00.841Z,19.08
2018-02-24T22:56:28.700Z,22.33
2018-02-24T22:58:56.179Z,19.83
2018-02-24T23:01:23.668Z,22.35
2018-02-24T23:03:51.159Z,22.65
2018-02-24T23:06:18.643Z,21.50
2018-02-24T23:08:46.980Z,19.37
2018-02-24T23:11:14.459Z,20.30
2018-02-24T23:13:42.080Z,21.00
2018-02-24T23:16:10.911Z,19.37
2018-02-24T23:18:38.389Z,21.05
2018-02-24T23:21:05.916Z,18.70
2018-02-24T23:23:33.411Z,22.67
2018-02-24T23:26:00.877Z,21.45
2018-02-24T23:28:28.514Z,22.67
2018-02-24T23:30:56.219Z,16.98
2018-02-24T23:33:23.714Z,22.48
2018-02-24T23:35:51.239Z,23.55
2018-02-24T23:38:18.712Z,20.52
2018-02-24T23:40:46.204Z,16.92
2018-02-24T23:43:13.686Z,19.60
2018-02-24T23:45:41.186Z,19.58
2018-02-24T23:48:08.679Z,19.90
2018-02-24T23:50:36.250Z,20.40
2018-02-24T23:53:03.746Z,14.75
2018-02-24T23:55:31.245Z,25.37
2018-02-24T23:57:59.175Z,21.35
